This is the latest recevied weather packets stored in our database for station/object W6SNO-1. If no packets are shown the sender has not sent any weather packets the latest 10 day(s).
| Time | Temp. | Humidity | Pressure | Rain* | Wind** | Luminosity | Snow |
|---|---|---|---|---|---|---|---|
| 1777855206 | 18.89° C | 50% | 1012.7 hPa | 0 mm | - | 276 W/m² | - |
| 1777854902 | 18.89° C | 50% | 1012.5 hPa | 0 mm | - | 276 W/m² | - |
| 1777853084 | 19.44° C | 48% | 1012.4 hPa | 0 mm | - | 202 W/m² | - |
| 1777852782 | 19.44° C | 48% | 1012.3 hPa | 0 mm | - | 202 W/m² | - |
| 1777852479 | 19.44° C | 47% | 1012.4 hPa | 0 mm | - | 229 W/m² | - |
| 1777851874 | 18.33° C | 50% | 1012.4 hPa | 0 mm | - | 518 W/m² | - |
| 1777851572 | 18.33° C | 50% | 1012.3 hPa | 0 mm | - | 518 W/m² | - |
| 1777850662 | 18.33° C | 53% | 1012.6 hPa | 0 mm | - | 522 W/m² | - |
| 1777850360 | 18.33° C | 53% | 1012.4 hPa | 0 mm | - | 522 W/m² | - |
| 1777850057 | 17.22° C | 56% | 1012.5 hPa | 0 mm | - | 233 W/m² | - |
| 1777849753 | 17.22° C | 56% | 1012.8 hPa | 0 mm | - | 233 W/m² | - |
| 1777847027 | 16.67° C | 61% | 1012.7 hPa | 0 mm | - | 302 W/m² | - |
| 1777846724 | 16.67° C | 61% | 1013.1 hPa | 0 mm | - | 302 W/m² | - |
| 1777845815 | 16.67° C | 63% | 1013 hPa | 0 mm | - | 230 W/m² | - |
| 1777845512 | 16.67° C | 63% | 1012.7 hPa | 0 mm | - | 230 W/m² | - |
| 1777844907 | 16.67° C | 65% | 1013.1 hPa | 0 mm | - | 253 W/m² | - |
| 1777844604 | 16.67° C | 65% | 1013.1 hPa | 0 mm | - | 253 W/m² | - |
| 1777843999 | 16.67° C | 65% | 1012.9 hPa | 0 mm | - | 186 W/m² | - |
| 1777843695 | 16.67° C | 65% | 1013 hPa | 0 mm | - | 186 W/m² | - |
| 1777842482 | 17.22° C | 61% | 1012.9 hPa | 0 mm | - | 211 W/m² | - |
| 1777842179 | 17.22° C | 61% | 1012.9 hPa | 0 mm | - | 211 W/m² | - |
| 1777841571 | 17.22° C | 60% | 1013 hPa | 0 mm | - | 274 W/m² | - |
| 1777841267 | 17.22° C | 60% | 1012.9 hPa | 0 mm | - | 274 W/m² | - |
| 1777840965 | 17.22° C | 61% | 1013.2 hPa | 0 mm | - | 238 W/m² | - |
| 1777839452 | 17.22° C | 59% | 1013.2 hPa | 0 mm | - | 268 W/m² | - |
* Rain latest hour (hover to see other rain measurements)
** Current wind speed in m/s (hover to see current wind gust speed)